Terminal Aerodrome Forecast
Issued by NWS Brownsville, TX

Home | Current Version | Previous Version | Text Only | Print | Product List | Glossary On
Versions: 1 2 3 4 5 6 7 8 9 10 11 12 13 14
908
FTUS44 KBRO 261736
TAFMFE
TAF
KMFE 261736Z 2618/2718 05009KT P6SM SCT080 BKN200
      TEMPO 2619/2623 4SM TSRA SCT035 BKN050CB
     FM270200 01006KT P6SM SCT030 OVC080
     FM271300 34010KT P6SM SCT012 BKN090
      TEMPO 2713/2716 BKN012=

USA.gov is the U.S. government's official web portal to all federal, state and local government web resources and services.